Time;durP1;ratioP1;P1;durP2;ratioP2;P2;SDS_P1;SDS_P2;PMS_P1;PMS_P2;Temp;Humidity;BMP_temperature;BMP_pressure;BME280_temperature;BME280_humidity;BME280_pressure;Samples;Min_cycle;Max_cycle;Signal;HPM_P1;HPM_P2
2021/04/11 21:21:06;;;;;;;3.33;1.50;;;3.40;80.90;;;;;;5108290;27;20359;-89
2021/04/11 21:23:46;;;;;;;5.03;1.58;;;3.40;81.10;;;;;;5107774;28;20393;-87
2021/04/11 21:26:39;;;;;;;6.28;1.50;;;3.40;81.00;;;;;;5109105;28;20389;-86
2021/04/11 21:29:38;;;;;;;5.63;1.40;;;3.30;82.20;;;;;;5108436;28;20374;-88
2021/04/11 21:32:32;;;;;;;4.53;1.58;;;3.20;82.00;;;;;;5107537;28;20772;-89
2021/04/11 21:35:12;;;;;;;6.03;1.90;;;3.20;82.10;;;;;;5107411;28;20446;-87
2021/04/11 21:38:03;;;;;;;3.13;1.70;;;3.20;82.80;;;;;;5114164;28;20727;-89
2021/04/11 21:40:34;;;;;;;6.00;1.50;;;3.10;84.50;;;;;;5129089;28;20436;-88
2021/04/11 21:43:08;;;;;;;3.05;1.83;;;3.00;83.90;;;;;;5127541;28;20392;-88
2021/04/11 21:45:41;;;;;;;4.97;1.80;;;2.90;84.80;;;;;;5129078;27;20436;-88
2021/04/11 21:48:43;;;;;;;3.40;1.83;;;2.90;84.80;;;;;;5128168;28;20399;-88
2021/04/11 21:51:15;;;;;;;4.32;1.73;;;2.90;83.80;;;;;;5128189;28;20897;-88
2021/04/11 21:53:48;;;;;;;5.97;1.83;;;2.90;83.50;;;;;;5127462;28;20432;-88
2021/04/11 21:56:49;;;;;;;6.38;1.80;;;2.90;84.60;;;;;;5128735;28;20525;-88
2021/04/11 21:59:42;;;;;;;3.97;1.70;;;2.80;84.70;;;;;;5044824;28;20429;-86
2021/04/11 22:02:31;;;;;;;5.73;2.20;;;2.80;84.20;;;;;;5126184;27;20383;-87
2021/04/11 22:05:07;;;;;;;4.82;1.90;;;2.80;84.00;;;;;;5127173;28;20763;-86
2021/04/11 22:07:44;;;;;;;5.17;1.83;;;2.90;84.40;;;;;;5127918;28;20480;-87
2021/04/11 22:10:43;;;;;;;4.03;1.40;;;2.70;85.20;;;;;;5126987;28;20423;-88
2021/04/11 22:13:20;;;;;;;6.05;1.95;;;2.70;85.70;;;;;;5099790;27;20460;-87
2021/04/11 22:15:54;;;;;;;5.38;1.67;;;2.80;84.20;;;;;;5128376;28;20478;-87
2021/04/11 22:18:35;;;;;;;4.15;1.98;;;2.70;84.80;;;;;;5125941;28;20565;-87
2021/04/11 22:21:12;;;;;;;6.38;1.80;;;2.80;85.70;;;;;;5128141;28;20391;-87
2021/04/11 22:24:06;;;;;;;9.57;1.85;;;2.80;85.40;;;;;;5120204;28;21011;-87
2021/04/11 22:26:40;;;;;;;5.63;1.67;;;2.60;85.30;;;;;;5107356;28;20822;-87
2021/04/11 22:29:21;;;;;;;5.40;1.55;;;2.70;86.20;;;;;;5107045;28;20389;-85
2021/04/11 22:31:59;;;;;;;4.55;2.00;;;2.60;85.90;;;;;;5091859;28;20776;-87
2021/04/11 22:34:26;;;;;;;5.28;1.75;;;2.60;86.00;;;;;;5092396;28;20390;-87
2021/04/11 22:36:55;;;;;;;3.70;1.90;;;2.40;86.30;;;;;;5093347;28;20459;-87
2021/04/11 22:39:28;;;;;;;5.30;2.25;;;2.40;86.70;;;;;;5093446;28;20405;-87
2021/04/11 22:42:15;;;;;;;3.15;1.63;;;2.60;87.00;;;;;;5093513;28;20754;-87
2021/04/11 22:45:11;;;;;;;4.03;1.60;;;2.60;86.60;;;;;;5092016;28;20390;-86
2021/04/11 22:47:54;;;;;;;4.53;1.88;;;2.60;87.30;;;;;;5093054;28;20703;-88
2021/04/11 22:50:41;;;;;;;6.00;2.05;;;2.60;87.90;;;;;;5092033;28;20486;-87
2021/04/11 22:53:40;;;;;;;6.23;1.70;;;2.40;88.00;;;;;;5093546;28;20386;-87
2021/04/11 22:56:21;;;;;;;4.85;1.95;;;2.40;88.00;;;;;;5091930;28;20409;-86
2021/04/11 22:59:04;;;;;;;3.92;1.80;;;2.30;87.80;;;;;;5092768;28;20410;-87
2021/04/11 23:01:36;;;;;;;5.13;1.98;;;2.30;87.90;;;;;;5092667;28;20439;-87
2021/04/11 23:04:18;;;;;;;4.18;1.60;;;2.40;88.20;;;;;;5091700;28;20383;-87
2021/04/11 23:07:03;;;;;;;7.13;2.35;;;2.30;88.50;;;;;;5092848;28;20382;-86
2021/04/11 23:09:49;;;;;;;8.23;2.25;;;2.30;88.80;;;;;;5091989;28;20398;-87
2021/04/11 23:12:31;;;;;;;6.18;2.00;;;2.40;88.60;;;;;;5091488;28;20776;-87
2021/04/11 23:14:59;;;;;;;5.10;1.87;;;2.40;88.50;;;;;;5093392;28;20366;-87
2021/04/11 23:17:46;;;;;;;6.97;2.15;;;2.30;88.60;;;;;;5092156;28;20446;-87
2021/04/11 23:20:47;;;;;;;4.55;2.17;;;2.20;88.80;;;;;;5093235;28;20512;-86
2021/04/11 23:23:29;;;;;;;5.18;2.05;;;2.10;88.70;;;;;;5080796;28;20488;-86
2021/04/11 23:26:13;;;;;;;7.20;2.28;;;2.30;89.00;;;;;;5092771;28;20374;-87
2021/04/11 23:29:12;;;;;;;4.68;2.35;;;2.10;88.90;;;;;;5092038;28;20766;-88
2021/04/11 23:31:52;;;;;;;6.15;3.22;;;2.20;89.10;;;;;;5092275;28;20400;-87
2021/04/11 23:34:56;;;;;;;3.72;2.15;;;2.10;88.70;;;;;;5091512;28;20719;-86
2021/04/11 23:37:46;;;;;;;4.97;2.27;;;2.30;88.70;;;;;;5092047;28;20378;-87
2021/04/11 23:40:15;;;;;;;4.20;2.37;;;2.20;88.50;;;;;;5092649;28;20420;-88
2021/04/11 23:43:11;;;;;;;5.20;2.28;;;1.90;89.90;;;;;;5091686;28;20370;-86
2021/04/11 23:45:48;;;;;;;8.57;2.28;;;2.00;89.40;;;;;;5091675;28;20781;-87
2021/04/11 23:48:16;;;;;;;5.60;2.20;;;2.10;89.40;;;;;;5091936;28;20382;-87
2021/04/11 23:51:00;;;;;;;4.13;2.33;;;1.90;89.80;;;;;;5091144;28;20451;-87
2021/04/11 23:53:57;;;;;;;5.83;2.03;;;2.10;89.50;;;;;;5090553;28;20401;-87
2021/04/11 23:56:53;;;;;;;7.35;2.63;;;2.10;89.30;;;;;;5091246;28;20382;-86
2021/04/11 23:59:25;;;;;;;5.78;2.70;;;2.00;89.40;;;;;;5090280;28;20421;-88
